Time;durP1;ratioP1;P1;durP2;ratioP2;P2;SDS_P1;SDS_P2;PMS_P1;PMS_P2;Temp;Humidity;BMP_temperature;BMP_pressure;BME280_temperature;BME280_humidity;BME280_pressure;Samples;Min_cycle;Max_cycle;Signal;HPM_P1;HPM_P2
2021/08/22 00:02:04;;;;;;;1.58;0.90;;;11.70;99.90;;;;;;4991322;28;20109;-65
2021/08/22 00:04:31;;;;;;;1.55;1.13;;;11.70;99.90;;;;;;4991547;28;20092;-66
2021/08/22 00:06:58;;;;;;;2.20;1.35;;;11.70;99.90;;;;;;4991160;28;20069;-68
2021/08/22 00:09:25;;;;;;;1.10;0.95;;;11.70;99.90;;;;;;4990113;28;20178;-70
2021/08/22 00:11:52;;;;;;;1.42;0.90;;;11.70;99.90;;;;;;4991533;28;20482;-72
2021/08/22 00:14:19;;;;;;;1.33;1.17;;;11.60;99.90;;;;;;4991069;28;20121;-69
2021/08/22 00:16:46;;;;;;;1.45;1.30;;;11.60;99.90;;;;;;4991530;28;20482;-66
2021/08/22 00:19:13;;;;;;;4.38;1.20;;;11.60;99.90;;;;;;4989986;28;20090;-69
2021/08/22 00:21:40;;;;;;;2.42;1.30;;;11.60;99.90;;;;;;4991029;28;20512;-66
2021/08/22 00:24:07;;;;;;;1.70;1.00;;;11.60;99.90;;;;;;4991347;28;20046;-66
2021/08/22 00:26:34;;;;;;;1.48;1.17;;;11.60;99.90;;;;;;4991407;28;20504;-68
2021/08/22 00:29:01;;;;;;;1.88;1.10;;;11.50;99.90;;;;;;4991200;28;20069;-67
2021/08/22 00:31:28;;;;;;;1.25;1.10;;;11.50;99.90;;;;;;4989449;28;20129;-66
2021/08/22 00:33:55;;;;;;;1.00;0.90;;;11.50;99.90;;;;;;4991407;28;20070;-76
2021/08/22 00:36:22;;;;;;;1.30;1.00;;;11.50;99.90;;;;;;4990907;28;20441;-65
2021/08/22 00:38:50;;;;;;;0.93;0.90;;;11.50;99.90;;;;;;4992125;28;20058;-66
2021/08/22 00:41:17;;;;;;;1.65;1.55;;;11.50;99.90;;;;;;4993333;28;20408;-70
2021/08/22 00:43:45;;;;;;;3.30;1.40;;;11.50;99.90;;;;;;4994949;28;20078;-68
2021/08/22 00:46:12;;;;;;;1.08;0.98;;;11.50;99.90;;;;;;4995092;28;20092;-66
2021/08/22 00:48:41;;;;;;;1.35;1.25;;;11.50;99.90;;;;;;4994821;28;20047;-67
2021/08/22 00:51:08;;;;;;;2.22;1.25;;;11.50;99.90;;;;;;4994827;28;20058;-70
2021/08/22 00:53:38;;;;;;;1.42;1.30;;;11.40;99.90;;;;;;4993138;28;20061;-70
2021/08/22 00:56:05;;;;;;;3.75;1.20;;;11.40;99.90;;;;;;4994586;28;20065;-66
2021/08/22 00:58:33;;;;;;;1.38;1.27;;;11.40;99.90;;;;;;4994790;28;20078;-66
2021/08/22 01:01:01;;;;;;;1.88;1.75;;;11.40;99.90;;;;;;4994521;28;20457;-66
2021/08/22 01:03:44;;;;;;;1.02;0.82;;;11.40;99.90;;;;;;4993162;28;20432;-69
2021/08/22 01:06:43;;;;;;;2.42;1.40;;;11.40;99.90;;;;;;4993313;28;20046;-67
2021/08/22 01:09:19;;;;;;;1.20;1.10;;;11.40;99.90;;;;;;4994587;28;20510;-69
2021/08/22 01:11:46;;;;;;;1.40;1.20;;;11.50;99.90;;;;;;4993169;28;20112;-68
2021/08/22 01:14:22;;;;;;;3.10;1.48;;;11.50;99.90;;;;;;4994478;28;20069;-68
2021/08/22 01:16:54;;;;;;;3.38;1.52;;;11.50;99.90;;;;;;4994315;28;20053;-66
2021/08/22 01:19:43;;;;;;;2.70;1.30;;;11.50;99.90;;;;;;4993093;28;20076;-69
2021/08/22 01:22:10;;;;;;;2.05;1.30;;;11.50;99.90;;;;;;4994323;28;20046;-66
2021/08/22 01:24:39;;;;;;;4.53;1.42;;;11.50;99.90;;;;;;4994808;28;20085;-76
2021/08/22 01:27:07;;;;;;;1.17;1.08;;;11.50;99.90;;;;;;4994143;28;20089;-65
2021/08/22 01:29:45;;;;;;;1.50;1.30;;;11.50;99.90;;;;;;4992405;28;20093;-67
2021/08/22 01:32:13;;;;;;;5.65;1.85;;;11.50;99.90;;;;;;4994172;28;20065;-69
2021/08/22 01:34:42;;;;;;;1.15;0.95;;;11.40;99.90;;;;;;4994134;28;20054;-70
2021/08/22 01:37:09;;;;;;;2.65;1.63;;;11.40;99.90;;;;;;4994288;28;20326;-68
2021/08/22 01:39:38;;;;;;;1.63;1.45;;;11.40;99.90;;;;;;4992691;28;20428;-68
2021/08/22 01:42:08;;;;;;;3.47;2.63;;;11.40;99.90;;;;;;4993866;28;20348;-71
2021/08/22 01:44:37;;;;;;;1.85;1.52;;;11.30;99.90;;;;;;4994502;28;20105;-72
2021/08/22 01:47:10;;;;;;;1.13;1.00;;;11.30;99.90;;;;;;4994136;28;20089;-68
2021/08/22 01:49:38;;;;;;;1.75;1.00;;;11.30;99.90;;;;;;4992538;28;20054;-66
2021/08/22 01:52:07;;;;;;;1.02;0.93;;;11.40;99.90;;;;;;4994034;28;20118;-65
2021/08/22 01:54:36;;;;;;;1.23;1.00;;;11.40;99.90;;;;;;4993936;28;20120;-68
2021/08/22 01:57:05;;;;;;;2.83;1.20;;;11.50;99.90;;;;;;4992584;28;20138;-74
2021/08/22 01:59:39;;;;;;;2.05;1.90;;;11.60;99.90;;;;;;4992157;28;20050;-70
2021/08/22 02:02:05;;;;;;;1.02;0.82;;;11.90;99.90;;;;;;4993822;28;20081;-67
2021/08/22 02:04:47;;;;;;;1.58;0.65;;;12.10;99.90;;;;;;4993702;28;20057;-66
2021/08/22 02:07:17;;;;;;;1.50;0.80;;;12.40;99.90;;;;;;4991535;28;20046;-70
2021/08/22 02:10:05;;;;;;;1.48;0.90;;;12.70;99.90;;;;;;4993587;28;20054;-66
2021/08/22 02:12:33;;;;;;;0.68;0.50;;;13.00;99.90;;;;;;4993939;28;20109;-68
2021/08/22 02:15:15;;;;;;;2.00;0.60;;;13.30;99.90;;;;;;4993121;28;20100;-67
2021/08/22 02:17:49;;;;;;;2.00;0.52;;;13.60;99.90;;;;;;4990972;28;20400;-65
2021/08/22 02:20:18;;;;;;;2.20;0.85;;;13.70;99.90;;;;;;4993494;28;20102;-68
2021/08/22 02:22:46;;;;;;;2.67;0.70;;;13.80;99.90;;;;;;4993257;28;20078;-66
2021/08/22 02:25:14;;;;;;;1.13;0.82;;;13.90;99.90;;;;;;4992035;28;20043;-71
2021/08/22 02:27:41;;;;;;;0.60;0.52;;;13.90;99.90;;;;;;4993496;28;20066;-72
2021/08/22 02:30:09;;;;;;;0.77;0.57;;;14.00;99.90;;;;;;4993204;28;20140;-66
2021/08/22 02:32:36;;;;;;;0.57;0.50;;;14.00;99.90;;;;;;4992961;28;20054;-66
2021/08/22 02:35:04;;;;;;;0.90;0.75;;;13.90;99.90;;;;;;4993059;28;20137;-74
2021/08/22 02:37:31;;;;;;;1.02;0.70;;;13.90;99.90;;;;;;4991575;28;20150;-66
2021/08/22 02:39:58;;;;;;;0.70;0.70;;;14.00;99.90;;;;;;4992690;28;20408;-67
2021/08/22 02:42:25;;;;;;;1.58;0.63;;;14.00;99.90;;;;;;4992818;28;20134;-70
2021/08/22 02:44:52;;;;;;;0.80;0.75;;;13.90;99.90;;;;;;4992916;28;20046;-75
2021/08/22 02:47:19;;;;;;;1.27;1.02;;;13.70;99.90;;;;;;4991257;28;20426;-66
2021/08/22 02:49:46;;;;;;;1.20;1.10;;;13.40;99.90;;;;;;4992399;28;20424;-76
2021/08/22 02:52:13;;;;;;;0.98;0.70;;;13.20;99.90;;;;;;4992522;28;20434;-72
2021/08/22 02:54:39;;;;;;;4.95;2.20;;;12.90;99.90;;;;;;4992890;28;20488;-67
2021/08/22 02:57:06;;;;;;;1.17;0.93;;;12.60;99.90;;;;;;4992448;28;20108;-77
2021/08/22 02:59:33;;;;;;;2.38;0.77;;;12.40;99.90;;;;;;4990725;28;20448;-66
2021/08/22 03:02:00;;;;;;;2.08;0.80;;;12.30;99.90;;;;;;4991652;28;20496;-67
2021/08/22 03:04:28;;;;;;;1.38;1.17;;;12.10;99.90;;;;;;4992587;28;20050;-72
2021/08/22 03:06:54;;;;;;;1.55;1.33;;;11.90;99.90;;;;;;4992049;28;20046;-76
2021/08/22 03:09:21;;;;;;;0.77;0.70;;;11.80;99.90;;;;;;4990981;28;20116;-68
2021/08/22 03:11:48;;;;;;;2.50;1.10;;;11.80;99.90;;;;;;4992593;28;20089;-65
2021/08/22 03:14:15;;;;;;;1.70;1.20;;;11.70;99.90;;;;;;4992370;28;20504;-69
2021/08/22 03:16:42;;;;;;;1.65;0.80;;;11.60;99.90;;;;;;4992663;28;20109;-66
2021/08/22 03:19:09;;;;;;;1.08;0.77;;;11.60;99.90;;;;;;4992246;28;20055;-66
2021/08/22 03:21:37;;;;;;;0.95;0.95;;;11.50;99.90;;;;;;4990439;28;20616;-66
2021/08/22 03:24:06;;;;;;;0.80;0.60;;;11.50;99.90;;;;;;4992010;28;20050;-69
2021/08/22 03:26:34;;;;;;;0.90;0.85;;;11.50;99.90;;;;;;4992071;28;20466;-66
2021/08/22 03:29:00;;;;;;;1.02;0.88;;;11.50;99.90;;;;;;4992129;28;20077;-68
2021/08/22 03:31:27;;;;;;;1.45;0.88;;;11.50;99.90;;;;;;4990678;28;20539;-67
2021/08/22 03:33:54;;;;;;;0.95;0.73;;;11.40;99.90;;;;;;4991908;28;20065;-76
2021/08/22 03:36:21;;;;;;;4.70;1.10;;;11.40;99.90;;;;;;4991732;28;20101;-69
2021/08/22 03:38:48;;;;;;;4.55;1.80;;;11.40;99.90;;;;;;4991972;28;20137;-67
2021/08/22 03:41:15;;;;;;;0.90;0.65;;;11.30;99.90;;;;;;4990200;28;20047;-68
2021/08/22 03:43:42;;;;;;;1.10;1.00;;;11.30;99.90;;;;;;4991897;28;20449;-66
2021/08/22 03:46:09;;;;;;;0.98;0.88;;;11.30;99.90;;;;;;4991783;28;20447;-67
2021/08/22 03:48:36;;;;;;;2.75;0.90;;;11.30;99.90;;;;;;4991577;28;20093;-77
2021/08/22 03:51:03;;;;;;;1.00;0.88;;;11.30;99.90;;;;;;4991578;28;20069;-67
2021/08/22 03:53:30;;;;;;;0.82;0.68;;;11.40;99.90;;;;;;4990127;28;20444;-68
2021/08/22 03:55:57;;;;;;;1.20;1.00;;;11.40;99.90;;;;;;4991349;28;20046;-71
2021/08/22 03:58:25;;;;;;;1.65;1.33;;;11.40;99.90;;;;;;4991618;28;20050;-65
2021/08/22 04:00:52;;;;;;;3.10;1.05;;;11.50;99.90;;;;;;4991498;28;20046;-69
2021/08/22 04:03:20;;;;;;;2.50;0.65;;;11.50;99.90;;;;;;4989732;28;20153;-67
2021/08/22 04:06:08;;;;;;;2.03;0.60;;;11.50;99.90;;;;;;4991116;28;20068;-66
2021/08/22 04:08:39;;;;;;;2.95;1.33;;;11.60;99.90;;;;;;4991925;28;20043;-74
2021/08/22 04:11:08;;;;;;;1.88;0.90;;;11.60;99.90;;;;;;4991759;28;20456;-66
2021/08/22 04:13:35;;;;;;;1.88;0.93;;;11.70;99.90;;;;;;4989336;28;20074;-66
2021/08/22 04:16:02;;;;;;;1.27;1.17;;;11.80;99.90;;;;;;4991082;28;20089;-67
2021/08/22 04:18:29;;;;;;;2.17;1.00;;;11.80;99.90;;;;;;4991279;28;20049;-74
2021/08/22 04:20:56;;;;;;;1.00;0.90;;;11.90;99.90;;;;;;4991574;28;20120;-66
2021/08/22 04:23:23;;;;;;;3.45;1.27;;;12.00;99.90;;;;;;4989959;28;20065;-71
2021/08/22 04:25:51;;;;;;;2.28;1.17;;;12.20;99.90;;;;;;4991412;28;20469;-70
2021/08/22 04:28:18;;;;;;;1.40;1.10;;;12.40;99.90;;;;;;4991206;28;20050;-66
2021/08/22 04:30:46;;;;;;;1.02;0.93;;;12.70;99.90;;;;;;4991270;28;20046;-73
2021/08/22 04:33:13;;;;;;;1.08;0.90;;;13.10;99.90;;;;;;4989407;28;20412;-65
2021/08/22 04:35:40;;;;;;;1.08;0.80;;;13.50;99.90;;;;;;4991131;28;20051;-73
2021/08/22 04:38:07;;;;;;;0.65;0.60;;;13.90;99.90;;;;;;4990975;28;20046;-65
2021/08/22 04:40:36;;;;;;;0.50;0.40;;;14.20;99.90;;;;;;4991048;28;20451;-66
2021/08/22 04:43:04;;;;;;;1.00;0.93;;;14.50;99.90;;;;;;4990773;28;20062;-66
2021/08/22 04:45:31;;;;;;;1.38;0.75;;;14.60;99.90;;;;;;4989408;28;20059;-67
2021/08/22 04:47:58;;;;;;;1.48;0.73;;;14.70;99.90;;;;;;4990518;28;20122;-67
2021/08/22 04:50:25;;;;;;;0.82;0.40;;;14.70;99.90;;;;;;4990921;28;20057;-67
2021/08/22 04:52:52;;;;;;;3.08;0.90;;;14.70;99.90;;;;;;4990605;28;20133;-75
2021/08/22 04:55:20;;;;;;;0.70;0.65;;;14.80;99.90;;;;;;4989432;28;20057;-66
2021/08/22 04:57:47;;;;;;;1.13;0.65;;;14.90;99.90;;;;;;4991214;28;20050;-66
2021/08/22 05:00:14;;;;;;;1.25;0.75;;;14.90;99.90;;;;;;4990623;28;20493;-65
2021/08/22 05:02:41;;;;;;;0.60;0.60;;;14.90;99.90;;;;;;4991182;28;20053;-65
2021/08/22 05:05:09;;;;;;;1.20;0.75;;;14.90;99.90;;;;;;4991154;28;20061;-65
2021/08/22 05:07:35;;;;;;;2.20;1.48;;;14.90;99.90;;;;;;4989790;28;20065;-75
2021/08/22 05:10:03;;;;;;;0.77;0.60;;;15.00;99.90;;;;;;4991284;28;20042;-65
2021/08/22 05:12:29;;;;;;;0.95;0.80;;;15.00;99.90;;;;;;4990878;28;20046;-67
2021/08/22 05:14:56;;;;;;;2.05;1.08;;;15.10;99.90;;;;;;4990793;28;20077;-72
2021/08/22 05:17:23;;;;;;;1.65;1.08;;;15.10;99.90;;;;;;4989553;28;20051;-66
2021/08/22 05:19:50;;;;;;;1.17;0.95;;;15.10;99.90;;;;;;4990889;28;20080;-66
2021/08/22 05:22:17;;;;;;;3.28;1.10;;;15.10;99.90;;;;;;4990616;28;20054;-67
2021/08/22 05:24:44;;;;;;;1.70;0.93;;;15.10;99.90;;;;;;4991942;28;20046;-68
2021/08/22 05:27:11;;;;;;;4.03;1.58;;;15.10;99.90;;;;;;4992669;28;20085;-74
2021/08/22 05:29:38;;;;;;;0.77;0.68;;;15.10;99.90;;;;;;4994725;28;20088;-69
2021/08/22 05:32:06;;;;;;;1.45;1.30;;;15.10;99.90;;;;;;4994325;28;20051;-69
2021/08/22 05:34:33;;;;;;;2.78;1.02;;;15.20;99.90;;;;;;4994495;28;20070;-65
2021/08/22 05:37:00;;;;;;;1.27;0.85;;;15.20;99.90;;;;;;4994115;28;20050;-67
2021/08/22 05:39:27;;;;;;;1.42;0.85;;;15.30;99.90;;;;;;4992493;28;20061;-66
2021/08/22 05:41:54;;;;;;;2.30;1.20;;;15.30;99.90;;;;;;4994077;28;20093;-66
2021/08/22 05:44:21;;;;;;;2.70;0.77;;;15.30;99.90;;;;;;4994217;28;20149;-69
2021/08/22 05:46:48;;;;;;;1.10;0.82;;;15.30;99.90;;;;;;4994141;28;20074;-69
2021/08/22 05:49:15;;;;;;;1.92;0.65;;;15.40;99.90;;;;;;4992327;28;20042;-66
2021/08/22 05:51:44;;;;;;;1.10;1.00;;;15.40;99.90;;;;;;4993866;28;20413;-67
2021/08/22 05:54:11;;;;;;;2.50;0.83;;;15.40;99.90;;;;;;4993394;28;20066;-68
2021/08/22 05:56:38;;;;;;;1.23;1.00;;;15.50;99.90;;;;;;4993823;28;20073;-66
2021/08/22 05:59:05;;;;;;;0.70;0.70;;;15.50;99.90;;;;;;4993440;28;20058;-66
2021/08/22 06:01:32;;;;;;;1.42;1.33;;;15.50;99.90;;;;;;4992026;28;20050;-68
2021/08/22 06:03:59;;;;;;;1.10;0.82;;;15.50;99.90;;;;;;4993766;28;20062;-67
2021/08/22 06:06:26;;;;;;;0.77;0.70;;;15.60;99.90;;;;;;4993181;28;20113;-69
2021/08/22 06:08:53;;;;;;;1.30;1.20;;;15.60;99.90;;;;;;4993337;28;20078;-69
2021/08/22 06:11:20;;;;;;;1.98;0.73;;;15.70;99.90;;;;;;4991495;28;20042;-67
2021/08/22 06:13:47;;;;;;;1.15;0.63;;;15.70;99.90;;;;;;4993509;28;20051;-71
2021/08/22 06:16:14;;;;;;;0.98;0.70;;;15.70;99.90;;;;;;4992909;28;20078;-69
2021/08/22 06:18:41;;;;;;;1.42;0.77;;;15.70;99.90;;;;;;4992989;28;20046;-69
2021/08/22 06:21:08;;;;;;;2.05;0.70;;;15.70;99.90;;;;;;4993699;28;20192;-68
2021/08/22 06:23:34;;;;;;;1.08;0.93;;;15.80;99.90;;;;;;4991183;28;20050;-67
2021/08/22 06:26:01;;;;;;;3.15;1.02;;;15.80;99.90;;;;;;4992825;28;20405;-68
2021/08/22 06:28:28;;;;;;;1.00;0.82;;;15.90;99.90;;;;;;4992898;28;20047;-71
2021/08/22 06:30:55;;;;;;;1.10;1.00;;;15.90;99.90;;;;;;4992664;28;20138;-70
2021/08/22 06:33:22;;;;;;;1.45;0.90;;;16.00;99.90;;;;;;4991586;28;20046;-74
2021/08/22 06:35:49;;;;;;;0.98;0.65;;;16.00;99.90;;;;;;4992032;28;20077;-72
2021/08/22 06:38:16;;;;;;;1.23;0.95;;;16.00;99.90;;;;;;4992184;28;20050;-66
2021/08/22 06:40:42;;;;;;;1.73;0.93;;;16.00;99.90;;;;;;4993169;28;20078;-68
2021/08/22 06:43:09;;;;;;;2.60;1.10;;;16.00;99.90;;;;;;4992740;28;20475;-77
2021/08/22 06:45:36;;;;;;;1.40;0.90;;;16.10;99.90;;;;;;4991278;28;20445;-67
2021/08/22 06:48:03;;;;;;;2.13;1.15;;;16.10;99.90;;;;;;4992192;28;20054;-69
2021/08/22 06:50:30;;;;;;;1.42;1.02;;;16.10;99.90;;;;;;4992797;28;20046;-68
2021/08/22 06:52:58;;;;;;;2.00;1.00;;;16.10;99.90;;;;;;4992122;28;20053;-68
2021/08/22 06:55:25;;;;;;;1.27;1.00;;;16.20;99.90;;;;;;4991154;28;20085;-69
2021/08/22 06:57:52;;;;;;;1.70;0.82;;;16.20;99.90;;;;;;4992361;28;20488;-76
2021/08/22 07:00:19;;;;;;;0.95;0.77;;;16.20;99.90;;;;;;4992179;28;20069;-68
2021/08/22 07:02:46;;;;;;;2.33;0.98;;;16.20;99.90;;;;;;4992349;28;20058;-68
2021/08/22 07:05:13;;;;;;;1.27;1.10;;;16.20;99.90;;;;;;4991022;28;20465;-69
2021/08/22 07:07:40;;;;;;;1.50;0.85;;;16.20;99.90;;;;;;4991666;28;20507;-74
2021/08/22 07:10:08;;;;;;;1.95;1.15;;;16.20;99.90;;;;;;4991952;28;20086;-69
2021/08/22 07:12:37;;;;;;;2.42;1.38;;;16.20;99.90;;;;;;4992274;28;20104;-76
2021/08/22 07:15:04;;;;;;;1.30;1.20;;;16.20;99.90;;;;;;4992118;28;20046;-68
2021/08/22 07:17:31;;;;;;;1.67;1.27;;;16.30;99.90;;;;;;4990996;28;20081;-68
2021/08/22 07:19:58;;;;;;;1.73;0.95;;;16.30;99.90;;;;;;4991686;28;20512;-67
2021/08/22 07:22:25;;;;;;;0.98;0.85;;;16.30;99.90;;;;;;4991795;28;20042;-69
2021/08/22 07:24:52;;;;;;;1.65;1.13;;;16.30;99.90;;;;;;4991991;28;20050;-70
2021/08/22 07:27:19;;;;;;;0.93;0.75;;;16.40;99.90;;;;;;4990266;28;20038;-77
2021/08/22 07:29:46;;;;;;;2.92;1.25;;;16.30;99.90;;;;;;4991741;28;20102;-66
2021/08/22 07:32:13;;;;;;;2.70;1.35;;;16.40;99.90;;;;;;4991880;28;20066;-68
2021/08/22 07:34:40;;;;;;;1.50;0.80;;;16.50;99.90;;;;;;4991611;28;20077;-72
2021/08/22 07:37:07;;;;;;;1.65;1.20;;;16.50;99.90;;;;;;4991352;28;20126;-70
2021/08/22 07:39:34;;;;;;;2.00;1.00;;;16.50;99.90;;;;;;4990115;28;20112;-71
2021/08/22 07:42:02;;;;;;;3.20;1.50;;;16.50;99.90;;;;;;4991382;28;20046;-78
2021/08/22 07:44:29;;;;;;;1.58;1.42;;;16.50;99.90;;;;;;4991880;28;20077;-71
2021/08/22 07:46:56;;;;;;;1.52;1.40;;;16.50;99.90;;;;;;4991504;28;20121;-73
2021/08/22 07:49:23;;;;;;;2.33;2.00;;;16.50;99.90;;;;;;4989983;28;20046;-72
2021/08/22 07:51:50;;;;;;;1.30;1.17;;;16.50;99.90;;;;;;4991159;28;20538;-69
2021/08/22 07:54:17;;;;;;;3.67;1.98;;;16.50;99.90;;;;;;4991545;28;20089;-74
2021/08/22 07:56:44;;;;;;;2.13;1.50;;;16.50;99.90;;;;;;4991672;28;20057;-68
2021/08/22 07:59:11;;;;;;;3.33;1.45;;;16.50;99.90;;;;;;4989911;28;20046;-73
2021/08/22 08:01:39;;;;;;;1.63;1.10;;;16.40;99.90;;;;;;4990594;28;20507;-74
2021/08/22 08:04:06;;;;;;;2.90;1.65;;;16.40;99.90;;;;;;4991267;28;20038;-69
2021/08/22 08:06:33;;;;;;;3.75;1.33;;;16.40;99.90;;;;;;4991322;28;20054;-71
2021/08/22 08:09:00;;;;;;;4.13;1.58;;;16.40;99.90;;;;;;4991233;28;20101;-67
2021/08/22 08:11:28;;;;;;;2.60;1.52;;;16.40;99.90;;;;;;4989882;28;20108;-72
2021/08/22 08:13:55;;;;;;;2.17;1.52;;;16.40;99.90;;;;;;4991075;28;20050;-76
2021/08/22 08:16:22;;;;;;;2.20;1.50;;;16.50;99.90;;;;;;4990906;28;20057;-70
2021/08/22 08:18:49;;;;;;;1.23;0.98;;;16.50;99.90;;;;;;4991026;28;20145;-74
2021/08/22 08:21:16;;;;;;;2.50;1.60;;;16.50;99.90;;;;;;4989717;28;20046;-66
2021/08/22 08:23:43;;;;;;;2.55;0.90;;;16.60;99.90;;;;;;4991521;28;20061;-69
2021/08/22 08:26:10;;;;;;;1.95;1.00;;;16.60;99.90;;;;;;4990640;28;20046;-71
2021/08/22 08:28:37;;;;;;;2.63;1.40;;;16.70;99.90;;;;;;4990999;28;20058;-71
2021/08/22 08:31:04;;;;;;;3.30;0.90;;;16.70;99.90;;;;;;4990986;28;20078;-68
2021/08/22 08:33:31;;;;;;;2.67;1.23;;;16.70;99.90;;;;;;4989790;28;20050;-72
2021/08/22 08:35:58;;;;;;;2.10;1.10;;;16.70;99.90;;;;;;4990914;28;20472;-67
2021/08/22 08:38:25;;;;;;;3.17;1.20;;;16.80;99.90;;;;;;4990906;28;20116;-68
2021/08/22 08:40:52;;;;;;;1.58;0.88;;;16.70;99.90;;;;;;4990885;28;20056;-72
2021/08/22 08:43:22;;;;;;;1.45;1.23;;;16.80;99.90;;;;;;4989327;28;20135;-68
2021/08/22 08:45:49;;;;;;;1.97;1.43;;;16.70;99.90;;;;;;4991013;28;20051;-69
2021/08/22 08:48:35;;;;;;;1.77;1.08;;;16.70;99.90;;;;;;4990679;28;20456;-72
2021/08/22 08:51:30;;;;;;;3.28;0.90;;;16.90;99.90;;;;;;4991123;28;20073;-68
2021/08/22 08:54:02;;;;;;;1.55;1.20;;;16.80;99.90;;;;;;4989752;28;20050;-71
2021/08/22 08:56:30;;;;;;;1.85;1.20;;;17.00;99.90;;;;;;4991256;28;20488;-65
2021/08/22 08:58:58;;;;;;;2.17;1.20;;;17.00;99.90;;;;;;4991246;28;20093;-72
2021/08/22 09:01:25;;;;;;;1.23;0.80;;;17.00;99.90;;;;;;4992884;28;20405;-66
2021/08/22 09:04:09;;;;;;;2.97;1.40;;;17.10;99.90;;;;;;4995136;28;20057;-75
2021/08/22 09:06:57;;;;;;;1.25;1.13;;;17.10;99.90;;;;;;4994680;28;20046;-66
2021/08/22 09:09:59;;;;;;;1.35;1.00;;;17.20;99.90;;;;;;4993246;28;20109;-72
2021/08/22 09:13:04;;;;;;;2.67;1.70;;;17.20;99.90;;;;;;4994627;28;20131;-73
2021/08/22 09:15:49;;;;;;;2.05;1.70;;;17.20;99.90;;;;;;4993018;28;20472;-65
2021/08/22 09:18:44;;;;;;;2.10;1.42;;;17.30;99.90;;;;;;4994273;28;20422;-66
2021/08/22 09:21:37;;;;;;;1.58;1.02;;;17.30;99.90;;;;;;4992410;28;20445;-66
2021/08/22 09:24:21;;;;;;;1.73;1.15;;;17.30;99.90;;;;;;4994333;28;20117;-66
2021/08/22 09:27:26;;;;;;;4.38;2.53;;;17.30;99.90;;;;;;4994722;28;20050;-75
2021/08/22 09:30:30;;;;;;;2.40;1.42;;;17.30;99.90;;;;;;4993078;28;20133;-71
2021/08/22 09:33:51;;;;;;;1.67;0.98;;;17.30;99.90;;;;;;4994181;28;20440;-76
2021/08/22 09:36:24;;;;;;;1.60;0.93;;;17.40;99.90;;;;;;4993284;28;20042;-68
2021/08/22 09:39:28;;;;;;;2.75;1.63;;;17.30;99.90;;;;;;4994071;28;20451;-66
2021/08/22 09:42:32;;;;;;;2.92;1.58;;;17.30;99.90;;;;;;4992364;28;20442;-74
2021/08/22 09:45:09;;;;;;;2.05;1.38;;;17.40;99.90;;;;;;4993755;28;20050;-70
2021/08/22 09:48:13;;;;;;;2.55;1.40;;;17.50;99.90;;;;;;4992835;28;20062;-72
2021/08/22 09:51:08;;;;;;;4.22;1.83;;;17.40;99.90;;;;;;4993826;28;20050;-72
2021/08/22 09:53:35;;;;;;;2.40;1.52;;;17.40;99.90;;;;;;4992345;28;20513;-66
2021/08/22 09:56:26;;;;;;;3.28;2.45;;;17.50;99.90;;;;;;4994052;28;20093;-67
2021/08/22 09:59:15;;;;;;;2.97;1.70;;;17.40;99.90;;;;;;4993638;28;20124;-70
2021/08/22 10:02:08;;;;;;;2.15;1.60;;;17.50;99.90;;;;;;4992164;28;20481;-66
2021/08/22 10:05:13;;;;;;;2.33;1.73;;;17.50;99.90;;;;;;4994076;28;20046;-74
2021/08/22 10:08:06;;;;;;;2.08;1.30;;;17.60;99.90;;;;;;4992073;28;20473;-68
2021/08/22 10:10:52;;;;;;;3.05;1.83;;;17.60;99.90;;;;;;4993744;28;20105;-66
2021/08/22 10:13:19;;;;;;;2.17;1.40;;;17.80;99.90;;;;;;4992222;28;20046;-71
2021/08/22 10:15:46;;;;;;;3.55;2.40;;;17.80;99.90;;;;;;4993398;28;20109;-68
2021/08/22 10:18:24;;;;;;;2.92;1.80;;;17.60;99.90;;;;;;4993873;28;20046;-66
2021/08/22 10:20:53;;;;;;;3.42;1.58;;;17.70;99.90;;;;;;4993556;28;20078;-68
2021/08/22 10:23:37;;;;;;;2.40;1.20;;;17.80;99.90;;;;;;4992060;28;20100;-66
2021/08/22 10:26:05;;;;;;;2.00;1.63;;;17.80;99.90;;;;;;4993136;28;20516;-67
2021/08/22 10:28:44;;;;;;;2.72;1.58;;;17.80;99.90;;;;;;4993103;28;20507;-66
2021/08/22 10:31:12;;;;;;;2.33;1.38;;;17.70;99.90;;;;;;4991691;28;20085;-66
2021/08/22 10:34:13;;;;;;;4.60;1.30;;;17.70;99.90;;;;;;4993114;28;20046;-69
2021/08/22 10:36:41;;;;;;;4.03;1.33;;;17.60;99.90;;;;;;4992998;28;20046;-66
2021/08/22 10:39:25;;;;;;;3.90;1.48;;;17.70;99.90;;;;;;4993022;28;20438;-77
2021/08/22 10:41:56;;;;;;;1.40;1.30;;;17.80;99.90;;;;;;4992077;28;20046;-71
2021/08/22 10:44:39;;;;;;;2.55;1.52;;;17.80;99.90;;;;;;4992915;28;20077;-66
2021/08/22 10:47:11;;;;;;;2.28;1.30;;;18.00;99.90;;;;;;4992885;28;20066;-66
2021/08/22 10:49:53;;;;;;;2.28;1.38;;;17.80;99.90;;;;;;4991390;28;20046;-66
2021/08/22 10:52:23;;;;;;;1.17;0.80;;;17.60;99.90;;;;;;4992924;28;20066;-72
2021/08/22 10:55:06;;;;;;;2.55;1.10;;;17.70;99.90;;;;;;4992965;28;20073;-69
2021/08/22 10:57:45;;;;;;;2.97;1.45;;;17.90;99.90;;;;;;4991204;28;20104;-74
2021/08/22 11:00:19;;;;;;;1.50;0.95;;;17.90;99.90;;;;;;4992908;28;20058;-73
2021/08/22 11:02:46;;;;;;;4.68;1.70;;;17.80;99.90;;;;;;4992060;28;20500;-74
2021/08/22 11:05:19;;;;;;;4.20;1.88;;;17.80;99.90;;;;;;4991565;28;20050;-78
2021/08/22 11:07:47;;;;;;;3.50;1.98;;;17.80;99.90;;;;;;4992308;28;20066;-68
2021/08/22 11:10:16;;;;;;;;;;;17.90;99.90;;;;;;4992835;28;20081;-66
2021/08/22 11:12:43;;;;;;;0.90;0.70;;;18.00;99.90;;;;;;4992204;28;20313;-66
2021/08/22 11:15:24;;;;;;;1.30;1.15;;;18.00;99.90;;;;;;4992686;28;20120;-65
2021/08/22 11:17:59;;;;;;;3.80;1.70;;;18.10;99.90;;;;;;4991132;28;20183;-66
2021/08/22 11:20:29;;;;;;;2.78;1.27;;;18.00;99.90;;;;;;4992998;28;20105;-67
2021/08/22 11:23:02;;;;;;;1.08;0.98;;;18.20;99.90;;;;;;4991644;28;20050;-67
2021/08/22 11:25:29;;;;;;;1.00;0.88;;;18.30;99.90;;;;;;4991011;28;20054;-71
2021/08/22 11:28:03;;;;;;;2.35;1.30;;;18.20;99.90;;;;;;4992415;28;20451;-71
2021/08/22 11:30:30;;;;;;;1.50;1.40;;;18.40;99.90;;;;;;4992267;28;20457;-66
2021/08/22 11:32:58;;;;;;;2.65;0.93;;;18.30;99.90;;;;;;4992379;28;20074;-78
2021/08/22 11:35:25;;;;;;;5.07;2.20;;;18.20;99.90;;;;;;4990667;28;20084;-81
2021/08/22 11:37:54;;;;;;;2.47;1.40;;;18.20;99.90;;;;;;4992703;28;20117;-68
2021/08/22 11:40:22;;;;;;;1.27;1.10;;;18.20;99.90;;;;;;4992254;28;20439;-66
2021/08/22 11:42:54;;;;;;;2.60;0.88;;;18.30;99.90;;;;;;4992100;28;20054;-65
2021/08/22 11:45:25;;;;;;;0.95;0.60;;;18.30;99.90;;;;;;4990332;28;20047;-68
2021/08/22 11:47:54;;;;;;;0.98;0.55;;;18.40;99.90;;;;;;4991909;28;20137;-72
2021/08/22 11:50:31;;;;;;;0.80;0.77;;;18.40;99.90;;;;;;4991737;28;20046;-65
2021/08/22 11:53:00;;;;;;;0.70;0.40;;;18.50;99.90;;;;;;4991710;28;20468;-66
2021/08/22 11:55:33;;;;;;;1.08;0.55;;;18.40;99.90;;;;;;4990400;28;20133;-65
2021/08/22 11:58:31;;;;;;;0.60;0.30;;;18.40;99.90;;;;;;4991443;28;20394;-66
2021/08/22 12:01:17;;;;;;;1.10;0.50;;;18.40;99.90;;;;;;4991480;28;20070;-65
2021/08/22 12:04:02;;;;;;;0.75;0.63;;;18.50;99.90;;;;;;4990577;28;20065;-67
2021/08/22 12:06:30;;;;;;;0.52;0.43;;;18.40;99.90;;;;;;4991545;28;20358;-69
2021/08/22 12:08:57;;;;;;;1.20;0.60;;;18.50;99.90;;;;;;4991606;28;20046;-82
2021/08/22 12:11:31;;;;;;;3.20;0.75;;;18.50;99.90;;;;;;4990101;28;20092;-69
2021/08/22 12:14:14;;;;;;;0.88;0.68;;;18.40;99.90;;;;;;4991240;28;20430;-66
2021/08/22 12:16:54;;;;;;;1.65;1.05;;;18.40;99.90;;;;;;4991705;28;20116;-65
2021/08/22 12:19:25;;;;;;;0.50;0.30;;;18.30;99.90;;;;;;4990476;28;20108;-65
2021/08/22 12:21:53;;;;;;;1.15;0.60;;;18.30;99.90;;;;;;4991556;28;20050;-74
2021/08/22 12:24:25;;;;;;;0.80;0.60;;;18.50;99.90;;;;;;4991503;28;20046;-65
2021/08/22 12:26:59;;;;;;;1.05;0.43;;;18.50;99.90;;;;;;4991623;28;20054;-78
2021/08/22 12:29:36;;;;;;;1.13;0.77;;;18.30;99.90;;;;;;4990150;28;20050;-66
2021/08/22 12:32:10;;;;;;;0.70;0.50;;;18.40;99.90;;;;;;4991389;28;20445;-65
2021/08/22 12:34:38;;;;;;;1.35;0.90;;;18.50;99.90;;;;;;4991727;28;20050;-75
2021/08/22 12:37:13;;;;;;;0.93;0.70;;;18.60;99.90;;;;;;4995175;28;20081;-66
2021/08/22 12:39:41;;;;;;;1.58;0.85;;;18.80;99.90;;;;;;4993874;28;20535;-77
2021/08/22 12:42:15;;;;;;;0.65;0.50;;;18.50;99.90;;;;;;4995467;28;20140;-66
2021/08/22 12:44:42;;;;;;;0.60;0.30;;;18.70;99.90;;;;;;4995313;28;20506;-72
2021/08/22 12:47:09;;;;;;;1.17;0.70;;;18.80;99.90;;;;;;4993986;28;20082;-76
2021/08/22 12:49:36;;;;;;;0.80;0.40;;;18.60;99.90;;;;;;4994055;28;20385;-65
2021/08/22 12:52:09;;;;;;;1.30;0.82;;;18.80;99.90;;;;;;4994732;28;20472;-65
2021/08/22 12:54:37;;;;;;;0.85;0.40;;;18.80;99.90;;;;;;4995152;28;20481;-65
2021/08/22 12:57:05;;;;;;;0.60;0.32;;;18.90;99.90;;;;;;4994931;28;20519;-66
2021/08/22 12:59:32;;;;;;;0.85;0.60;;;18.90;99.90;;;;;;4993315;28;20081;-67
2021/08/22 13:02:00;;;;;;;2.63;0.65;;;19.00;99.90;;;;;;4993407;28;20094;-71
2021/08/22 13:04:28;;;;;;;1.25;0.52;;;19.00;99.90;;;;;;4994911;28;20042;-69
2021/08/22 13:06:57;;;;;;;0.93;0.47;;;19.00;99.90;;;;;;4994490;28;20101;-74
2021/08/22 13:09:24;;;;;;;1.63;0.60;;;19.10;99.90;;;;;;4993628;28;20057;-66